Time;durP1;ratioP1;P1;durP2;ratioP2;P2;SDS_P1;SDS_P2;PMS_P1;PMS_P2;Temp;Humidity;BMP_temperature;BMP_pressure;BME280_temperature;BME280_humidity;BME280_pressure;Samples;Min_cycle;Max_cycle;Signal;HPM_P1;HPM_P2
2022/06/13 00:00:28;;;;;;;13.77;6.80;;;;;;;19.38;100.00;101930.59;5020649;28;20062;-51
2022/06/13 00:02:54;;;;;;;17.47;7.30;;;;;;;19.72;100.00;101925.53;5033251;28;20072;-47
2022/06/13 00:05:20;;;;;;;20.75;6.28;;;;;;;19.83;100.00;101932.06;5043039;28;20298;-51
2022/06/13 00:07:46;;;;;;;18.67;6.70;;;;;;;19.37;100.00;101929.75;5019424;28;20038;-51
2022/06/13 00:10:13;;;;;;;22.58;6.50;;;;;;;19.53;100.00;101930.19;5024755;28;20036;-48
2022/06/13 00:12:40;;;;;;;14.50;6.57;;;;;;;19.69;100.00;101931.41;5024683;28;20034;-51
2022/06/13 00:15:07;;;;;;;16.60;7.30;;;;;;;19.03;100.00;101938.28;5029707;28;20283;-48
2022/06/13 00:17:32;;;;;;;19.97;7.17;;;;;;;19.42;100.00;101940.72;5032648;28;20291;-48
2022/06/13 00:19:58;;;;;;;18.27;6.87;;;;;;;19.58;100.00;101938.47;5018112;28;20358;-48
2022/06/13 00:22:24;;;;;;;16.80;6.72;;;;;;;19.56;100.00;101925.09;5020350;28;20107;-47
2022/06/13 00:24:49;;;;;;;28.88;7.97;;;;;;;19.57;100.00;101928.66;5028586;28;20042;-51
2022/06/13 00:27:15;;;;;;;29.10;7.15;;;;;;;19.92;100.00;101927.97;5031026;28;20045;-47
2022/06/13 00:29:42;;;;;;;19.95;7.18;;;;;;;20.07;100.00;101922.13;5018761;28;20114;-50
2022/06/13 00:32:08;;;;;;;22.83;6.37;;;;;;;20.15;100.00;101919.06;5019007;28;20022;-48
2022/06/13 00:34:33;;;;;;;20.00;7.93;;;;;;;19.71;100.00;101911.13;5022359;28;20302;-48
2022/06/13 00:36:59;;;;;;;27.30;6.82;;;;;;;19.61;100.00;101910.84;5029335;28;20033;-50
2022/06/13 00:39:25;;;;;;;16.85;6.68;;;;;;;21.59;100.00;101909.66;5021965;28;20050;-48
2022/06/13 00:41:51;;;;;;;14.77;6.90;;;;;;;20.42;100.00;101912.38;5031267;28;20044;-47
2022/06/13 00:44:20;;;;;;;23.13;7.20;;;;;;;19.74;100.00;101912.56;5027455;28;20042;-48
2022/06/13 00:46:46;;;;;;;17.10;7.20;;;;;;;19.46;100.00;101905.84;5027187;28;20037;-50
2022/06/13 00:49:19;;;;;;;26.80;8.07;;;;;;;19.75;100.00;101897.94;5026067;28;20297;-51
2022/06/13 00:51:54;;;;;;;26.57;8.27;;;;;;;19.83;100.00;101903.00;5027084;28;20109;-51
2022/06/13 00:54:22;;;;;;;20.27;6.93;;;;;;;20.09;100.00;101903.72;5019758;28;20270;-53
2022/06/13 00:56:50;;;;;;;17.03;8.17;;;;;;;19.74;100.00;101894.41;5022981;28;20294;-51
2022/06/13 00:59:19;;;;;;;19.57;7.93;;;;;;;20.22;100.00;101901.81;5023424;28;20358;-52
2022/06/13 01:01:45;;;;;;;20.63;8.13;;;;;;;20.32;100.00;101899.38;5025339;28;20284;-51
2022/06/13 01:04:12;;;;;;;20.23;8.18;;;;;;;20.10;100.00;101899.09;5029713;28;20271;-50
2022/06/13 01:06:43;;;;;;;24.25;8.75;;;;;;;20.13;100.00;101904.06;5032455;28;20034;-51
2022/06/13 01:09:13;;;;;;;23.93;8.30;;;;;;;20.28;100.00;101898.16;5022513;28;20039;-51
2022/06/13 01:11:44;;;;;;;21.67;7.93;;;;;;;20.41;100.00;101905.25;5024765;28;20275;-50
2022/06/13 01:14:23;;;;;;;21.17;6.90;;;;;;;19.85;100.00;101898.22;5029615;28;20264;-51
2022/06/13 01:17:04;;;;;;;22.47;7.13;;;;;;;19.12;100.00;101894.59;5032357;28;20286;-51
2022/06/13 01:20:05;;;;;;;20.57;6.67;;;;;;;19.58;100.00;101893.16;5020655;28;20275;-47
2022/06/13 01:22:50;;;;;;;22.90;7.17;;;;;;;19.96;100.00;101903.91;5025538;28;20263;-50
2022/06/13 01:25:48;;;;;;;18.53;6.47;;;;;;;19.65;100.00;101897.66;5020129;28;20309;-53
2022/06/13 01:28:46;;;;;;;17.80;6.73;;;;;;;19.92;100.00;101906.25;5023493;28;20343;-50
2022/06/13 01:31:22;;;;;;;17.50;8.18;;;;;;;19.61;100.00;101895.44;5026650;28;20275;-48
2022/06/13 01:34:10;;;;;;;19.38;5.93;;;;;;;19.77;100.00;101895.81;5021529;28;20061;-49
2022/06/13 01:36:51;;;;;;;28.33;6.83;;;;;;;20.13;100.00;101904.91;5021217;28;20049;-48
2022/06/13 01:39:27;;;;;;;19.57;5.30;;;;;;;19.65;100.00;101900.38;5019640;28;20347;-47
2022/06/13 01:42:09;;;;;;;20.23;6.78;;;;;;;20.51;100.00;101910.94;5025757;28;20264;-52
2022/06/13 01:45:03;;;;;;;13.97;5.07;;;;;;;20.15;100.00;101915.50;5027413;28;20133;-50
2022/06/13 01:47:34;;;;;;;13.67;5.70;;;;;;;19.42;100.00;101915.50;5026014;28;20291;-48
2022/06/13 01:50:21;;;;;;;18.03;5.70;;;;;;;20.23;100.00;101904.31;5018858;28;20276;-48
2022/06/13 01:53:13;;;;;;;22.02;5.75;;;;;;;19.38;100.00;101908.91;5023821;28;20264;-51
2022/06/13 01:55:49;;;;;;;22.67;6.73;;;;;;;19.44;100.00;101911.50;5024654;28;20038;-51
2022/06/13 01:58:27;;;;;;;14.53;5.70;;;;;;;20.15;100.00;101904.66;5023831;28;20301;-50
2022/06/13 02:01:05;;;;;;;19.30;6.37;;;;;;;19.59;100.00;101911.06;5025127;28;20343;-47
2022/06/13 02:03:39;;;;;;;14.93;6.17;;;;;;;19.82;100.00;101906.78;5026944;28;20267;-50
2022/06/13 02:06:18;;;;;;;20.63;7.43;;;;;;;19.56;100.00;101903.41;5026219;28;20310;-53
2022/06/13 02:08:52;;;;;;;15.13;6.00;;;;;;;19.84;100.00;101901.13;5022611;28;20274;-48
2022/06/13 02:11:26;;;;;;;19.83;7.37;;;;;;;19.54;100.00;101910.13;5019941;28;20351;-48
2022/06/13 02:14:06;;;;;;;18.00;6.27;;;;;;;20.17;100.00;101903.38;5017718;28;20304;-52
2022/06/13 02:17:10;;;;;;;20.13;7.13;;;;;;;19.87;100.00;101903.38;5011976;28;20264;-50
2022/06/13 02:19:45;;;;;;;17.37;6.70;;;;;;;20.51;100.00;101900.06;5011847;28;20332;-49
2022/06/13 02:22:18;;;;;;;13.30;5.80;;;;;;;20.46;100.00;101898.06;5023411;28;20271;-50
2022/06/13 02:24:54;;;;;;;20.10;6.43;;;;;;;20.49;100.00;101892.16;5012480;28;20283;-48
2022/06/13 02:27:25;;;;;;;20.38;6.15;;;;;;;19.93;100.00;101888.91;5024475;28;20271;-47
2022/06/13 02:29:56;;;;;;;14.67;6.93;;;;;;;19.71;100.00;101886.69;5012358;28;20046;-53
2022/06/13 02:32:31;;;;;;;19.13;6.90;;;;;;;19.96;100.00;101890.34;5011733;28;20268;-52
2022/06/13 02:35:06;;;;;;;19.87;6.90;;;;;;;20.73;100.00;101892.13;5011162;28;20347;-47
2022/06/13 02:37:39;;;;;;;25.60;7.90;;;;;;;20.56;100.00;101889.31;5011272;28;20280;-48
2022/06/13 02:40:17;;;;;;;21.63;7.40;;;;;;;21.11;100.00;101886.41;5012923;28;20268;-49
2022/06/13 02:42:45;;;;;;;;;;;;;;;19.55;100.00;101876.53;5031456;28;20300;-46
2022/06/13 02:45:36;;;;;;;21.63;7.57;;;;;;;19.40;100.00;101875.03;5031033;28;19917;-49
2022/06/13 02:48:12;;;;;;;19.67;6.97;;;;;;;19.32;100.00;101876.19;5031080;28;20282;-49
2022/06/13 02:51:04;;;;;;;25.98;7.88;;;;;;;20.29;100.00;101876.22;5030886;28;20267;-49
2022/06/13 02:53:40;;;;;;;26.43;8.10;;;;;;;20.12;100.00;101881.53;5030875;28;20071;-50
2022/06/13 02:56:17;;;;;;;20.33;6.73;;;;;;;19.73;100.00;101881.06;5031151;28;20346;-53
2022/06/13 02:59:01;;;;;;;17.13;6.50;;;;;;;19.60;100.00;101885.59;5030523;28;20291;-49
2022/06/13 03:01:35;;;;;;;19.13;7.23;;;;;;;19.70;100.00;101878.81;5030711;28;20342;-55
2022/06/13 03:04:06;;;;;;;23.57;7.77;;;;;;;19.92;100.00;101884.53;5016921;28;20276;-49
2022/06/13 03:07:06;;;;;;;28.90;8.57;;;;;;;19.47;100.00;101885.81;5030528;28;20271;-50
2022/06/13 03:09:43;;;;;;;26.93;8.70;;;;;;;19.84;100.00;101888.41;5020961;28;20340;-52
2022/06/13 03:12:29;;;;;;;;;;;;;;;19.80;100.00;101881.78;5020968;28;20340;-53
2022/06/13 03:15:03;;;;;;;24.47;8.07;;;;;;;20.23;100.00;101888.03;5011063;28;19914;-51
2022/06/13 03:17:40;;;;;;;21.50;8.10;;;;;;;20.74;100.00;101893.78;5012323;28;20288;-50
2022/06/13 03:20:35;;;;;;;29.25;8.63;;;;;;;19.58;100.00;101904.00;5016248;28;20273;-50
2022/06/13 03:23:07;;;;;;;23.63;8.07;;;;;;;19.24;100.00;101903.63;5023001;28;20057;-49
2022/06/13 03:25:45;;;;;;;26.10;7.80;;;;;;;19.15;100.00;101900.38;5030226;28;20271;-52
2022/06/13 03:28:18;;;;;;;30.23;8.60;;;;;;;19.29;100.00;101901.03;5025940;28;20290;-55
2022/06/13 03:30:49;;;;;;;17.80;8.00;;;;;;;19.08;100.00;101907.78;5022969;28;20271;-50
2022/06/13 03:36:09;;;;;;;31.17;10.57;;;;;;;18.87;100.00;101909.00;5024395;28;20284;-50
2022/06/13 03:38:40;;;;;;;33.43;12.50;;;;;;;19.42;100.00;101902.75;5030157;28;20336;-51
2022/06/13 03:41:11;;;;;;;45.97;18.90;;;;;;;19.85;100.00;101906.34;5025638;28;20271;-48
2022/06/13 03:43:44;;;;;;;30.27;12.23;;;;;;;21.14;100.00;101919.41;5033908;28;20290;-48
2022/06/13 03:46:16;;;;;;;26.27;10.27;;;;;;;20.83;100.00;101915.22;5019506;28;20322;-52
2022/06/13 03:48:55;;;;;;;65.27;27.43;;;;;;;20.08;100.00;101917.50;5023997;28;20328;-51
2022/06/13 03:51:25;;;;;;;36.80;16.10;;;;;;;19.94;100.00;101923.13;5033702;28;20307;-51
2022/06/13 03:54:01;;;;;;;56.47;21.07;;;;;;;19.53;100.00;101922.84;5032109;28;20334;-48
2022/06/13 03:56:33;;;;;;;31.30;10.90;;;;;;;19.69;100.00;101915.94;5027303;28;20283;-48
2022/06/13 03:59:05;;;;;;;23.83;6.80;;;;;;;18.89;100.00;101925.88;5013724;28;20300;-52
2022/06/13 04:01:36;;;;;;;22.83;7.73;;;;;;;19.30;100.00;101929.00;5023176;28;20267;-51
2022/06/13 04:04:02;;;;;;;20.63;7.33;;;;;;;19.30;100.00;101924.41;5019748;28;20268;-50
2022/06/13 04:06:39;;;;;;;20.13;7.40;;;;;;;19.40;100.00;101933.91;5027549;28;20279;-48
2022/06/13 04:09:10;;;;;;;;;;;;;;;19.69;100.00;101936.84;5024545;28;20057;-50
2022/06/13 04:11:50;;;;;;;20.53;7.60;;;;;;;19.39;100.00;101926.81;5033428;28;19920;-50
2022/06/13 04:14:37;;;;;;;23.80;8.03;;;;;;;19.48;100.00;101930.84;5030007;28;20268;-50
2022/06/13 04:17:24;;;;;;;21.35;8.13;;;;;;;19.50;100.00;101939.59;5033160;28;20294;-48
2022/06/13 04:19:58;;;;;;;20.15;7.53;;;;;;;19.12;100.00;101943.38;5032355;28;20050;-52
2022/06/13 04:22:49;;;;;;;22.00;7.87;;;;;;;19.29;100.00;101947.16;5027027;28;20033;-48
2022/06/13 04:25:35;;;;;;;23.23;8.20;;;;;;;18.91;100.00;101948.16;5025599;28;20275;-51
2022/06/13 04:28:20;;;;;;;40.70;8.47;;;;;;;19.50;100.00;101945.03;5012564;28;20274;-47
2022/06/13 04:30:48;;;;;;;27.33;8.03;;;;;;;19.47;100.00;101946.28;5025720;28;20279;-48
2022/06/13 04:33:25;;;;;;;22.60;8.77;;;;;;;19.17;100.00;101949.78;5024801;28;20290;-48
2022/06/13 04:35:53;;;;;;;24.27;7.38;;;;;;;18.73;100.00;101949.81;5014786;28;20286;-48
2022/06/13 04:38:21;;;;;;;23.93;9.17;;;;;;;19.19;100.00;101944.16;5017645;28;20050;-50
2022/06/13 04:40:54;;;;;;;24.50;8.70;;;;;;;19.32;100.00;101940.47;5032682;28;20275;-51
2022/06/13 04:43:23;;;;;;;18.97;7.90;;;;;;;19.55;100.00;101937.00;5015682;28;20275;-50
2022/06/13 04:45:57;;;;;;;27.53;8.00;;;;;;;19.41;100.00;101944.50;5016330;28;20282;-51
2022/06/13 04:48:23;;;;;;;21.40;9.13;;;;;;;19.93;100.00;101943.19;5032164;28;20317;-47
2022/06/13 04:50:53;;;;;;;18.85;7.63;;;;;;;20.15;100.00;101939.94;5006533;28;20283;-51
2022/06/13 04:53:23;;;;;;;18.83;7.97;;;;;;;19.44;100.00;101949.47;5024948;28;20158;-48
2022/06/13 04:55:51;;;;;;;25.20;8.33;;;;;;;19.61;100.00;101946.97;5032103;28;20267;-50
2022/06/13 04:58:28;;;;;;;25.60;8.30;;;;;;;19.56;100.00;101949.53;5023857;28;20279;-56
2022/06/13 05:01:02;;;;;;;;;;;;;;;19.40;100.00;101950.16;5023414;28;20294;-49
2022/06/13 05:03:31;;;;;;;25.87;7.60;;;;;;;19.95;100.00;101960.09;4996226;28;19921;-51
2022/06/13 05:06:04;;;;;;;24.60;7.93;;;;;;;20.12;100.00;101952.13;5015155;28;20332;-48
2022/06/13 05:08:34;;;;;;;28.20;8.20;;;;;;;20.10;100.00;101948.81;5017726;28;20272;-52
2022/06/13 05:11:03;;;;;;;22.67;7.50;;;;;;;20.07;100.00;101949.28;5030569;28;20263;-51
2022/06/13 05:13:29;;;;;;;21.60;8.40;;;;;;;20.07;100.00;101954.72;5027988;28;20267;-49
2022/06/13 05:16:08;;;;;;;27.55;8.00;;;;;;;20.18;100.00;101955.78;5029379;28;20333;-51
2022/06/13 05:18:56;;;;;;;17.90;8.03;;;;;;;20.35;100.00;101961.38;5022554;28;20040;-49
2022/06/13 05:21:42;;;;;;;27.23;7.70;;;;;;;20.42;100.00;101959.38;5023699;28;20283;-50
2022/06/13 05:24:35;;;;;;;19.63;7.40;;;;;;;20.65;100.00;101960.44;5029094;28;20260;-54
2022/06/13 05:27:05;;;;;;;23.40;7.00;;;;;;;20.62;100.00;101972.59;5031328;28;20267;-52
2022/06/13 05:29:30;;;;;;;24.87;9.07;;;;;;;20.53;100.00;101975.91;5019705;28;20309;-53
2022/06/13 05:31:56;;;;;;;29.73;7.38;;;;;;;20.56;100.00;101984.41;5030546;28;20295;-50
2022/06/13 05:34:43;;;;;;;21.08;7.80;;;;;;;20.89;100.00;101985.78;5026171;28;20054;-50
2022/06/13 05:37:12;;;;;;;19.43;7.37;;;;;;;20.79;100.00;101988.22;5031250;28;20037;-50
2022/06/13 05:39:37;;;;;;;20.47;6.80;;;;;;;20.41;100.00;101986.75;5014466;28;20302;-48
2022/06/13 05:42:03;;;;;;;28.15;6.60;;;;;;;20.65;100.00;101984.09;5029222;28;20328;-54
2022/06/13 05:44:29;;;;;;;17.45;6.43;;;;;;;20.63;100.00;101998.72;5025535;28;20031;-49
2022/06/13 05:46:54;;;;;;;21.17;5.20;;;;;;;20.62;100.00;101997.06;5025520;28;20064;-47
2022/06/13 05:49:20;;;;;;;20.83;5.97;;;;;;;20.84;100.00;102001.13;5018660;28;20035;-50
2022/06/13 05:51:46;;;;;;;20.63;5.35;;;;;;;20.83;100.00;101999.47;5031606;28;20045;-48
2022/06/13 05:54:13;;;;;;;22.27;6.20;;;;;;;20.72;100.00;101996.47;5017658;28;20048;-49
2022/06/13 05:56:39;;;;;;;12.67;4.60;;;;;;;20.66;100.00;101999.34;5019841;28;20035;-51
2022/06/13 05:59:05;;;;;;;;;;;;;;;20.43;100.00;102009.91;5023822;28;20034;-49
2022/06/13 06:01:32;;;;;;;6.80;3.07;;;;;;;20.75;100.00;102015.03;5016603;28;19936;-52
2022/06/13 06:03:58;;;;;;;13.40;4.50;;;;;;;20.96;100.00;102014.72;5013849;28;20038;-52
2022/06/13 06:06:26;;;;;;;13.07;5.27;;;;;;;20.75;100.00;102019.66;5014135;28;20080;-48
2022/06/13 06:08:55;;;;;;;13.77;4.80;;;;;;;21.81;100.00;102030.69;5025255;28;20045;-49
2022/06/13 06:11:22;;;;;;;20.63;5.10;;;;;;;21.77;100.00;102030.34;5022663;28;20293;-47
2022/06/13 06:13:48;;;;;;;16.80;5.03;;;;;;;21.33;100.00;102036.19;5026864;28;20110;-49
2022/06/13 06:16:16;;;;;;;25.13;4.28;;;;;;;20.87;100.00;102038.72;5018034;28;20046;-49
2022/06/13 06:18:42;;;;;;;13.93;4.20;;;;;;;21.61;100.00;102042.78;5026244;28;20030;-52
2022/06/13 06:21:07;;;;;;;13.77;3.63;;;;;;;21.44;100.00;102042.69;5023165;28;20065;-49
2022/06/13 06:23:33;;;;;;;11.48;3.97;;;;;;;21.58;100.00;102048.72;5016888;28;20058;-50
2022/06/13 06:25:59;;;;;;;;;;;;;;;21.35;100.00;102051.22;5012172;28;20046;-51
2022/06/13 06:28:26;;;;;;;11.17;2.73;;;;;;;21.52;100.00;102055.09;5011337;28;19970;-48
2022/06/13 06:30:55;;;;;;;10.07;2.40;;;;;;;21.48;100.00;102054.78;5015654;28;20038;-49
2022/06/13 06:33:21;;;;;;;7.67;2.27;;;;;;;21.71;100.00;102058.53;5010779;28;20094;-48
2022/06/13 06:35:48;;;;;;;7.80;2.67;;;;;;;21.86;100.00;102063.47;5027279;28;20061;-48
2022/06/13 06:38:14;;;;;;;8.43;2.27;;;;;;;21.91;100.00;102060.81;5012868;28;20034;-47
2022/06/13 06:40:40;;;;;;;10.95;2.38;;;;;;;21.05;100.00;102063.09;5016994;28;20029;-53
2022/06/13 06:43:06;;;;;;;4.95;1.70;;;;;;;21.40;100.00;102057.84;5030882;28;20042;-51
2022/06/13 06:45:32;;;;;;;8.75;2.35;;;;;;;21.05;100.00;102057.66;5029585;28;20041;-53
2022/06/13 06:47:57;;;;;;;7.03;1.90;;;;;;;21.68;100.00;102062.56;5019580;28;20030;-50
2022/06/13 06:50:26;;;;;;;13.77;2.50;;;;;;;22.11;100.00;102063.09;5027249;28;20041;-51
2022/06/13 06:52:51;;;;;;;6.87;1.60;;;;;;;21.40;100.00;102063.28;5022232;28;20106;-48
2022/06/13 07:00:50;;;;;;;10.23;2.37;;;;;;;21.35;100.00;102062.09;5022487;28;20035;-49
2022/06/13 07:03:16;;;;;;;7.00;2.03;;;;;;;21.28;100.00;102061.41;5026096;28;20118;-50
2022/06/13 07:05:41;;;;;;;6.13;1.70;;;;;;;21.32;100.00;102068.03;5018922;28;20035;-51
2022/06/13 07:08:07;;;;;;;11.75;2.63;;;;;;;21.85;100.00;102070.78;5021574;28;20037;-48
2022/06/13 07:10:33;;;;;;;10.60;2.30;;;;;;;21.88;100.00;102074.94;5023709;28;20033;-51
2022/06/13 07:12:58;;;;;;;9.52;1.90;;;;;;;21.88;100.00;102074.94;5020449;28;20053;-49
2022/06/13 07:15:24;;;;;;;9.23;2.03;;;;;;;21.85;100.00;102075.41;5028174;28;20034;-47
2022/06/13 07:17:49;;;;;;;4.10;1.60;;;;;;;22.66;100.00;102074.47;5023710;28;20098;-50
2022/06/13 07:20:15;;;;;;;10.32;2.50;;;;;;;22.35;100.00;102080.19;5027267;28;20057;-54
2022/06/13 07:22:49;;;;;;;8.68;1.88;;;;;;;22.68;100.00;102077.75;5027799;28;20042;-48
2022/06/13 07:25:18;;;;;;;11.43;2.20;;;;;;;22.41;100.00;102080.25;5025535;28;20040;-52
2022/06/13 07:27:44;;;;;;;7.70;1.83;;;;;;;22.18;100.00;102085.59;5020849;28;20034;-51
2022/06/13 07:30:11;;;;;;;;;;;;;;;23.03;100.00;102079.38;5025489;28;20062;-50
2022/06/13 07:32:36;;;;;;;13.17;2.10;;;;;;;22.18;100.00;102077.41;5024746;28;19914;-49
2022/06/13 07:35:02;;;;;;;12.13;2.33;;;;;;;21.63;100.00;102079.56;5024032;28;20054;-50
2022/06/13 07:40:12;;;;;;;8.53;3.03;;;;;;;21.77;100.00;102085.59;5028343;28;20048;-50
2022/06/13 07:42:43;;;;;;;12.77;3.13;;;;;;;21.98;100.00;102087.91;5026297;28;20038;-49
2022/06/13 07:45:18;;;;;;;9.97;2.77;;;;;;;22.58;100.00;102086.59;5025324;28;20030;-53
2022/06/13 07:47:44;;;;;;;13.27;2.33;;;;;;;22.59;100.00;102090.13;5024697;28;20544;-51
2022/06/13 07:50:13;;;;;;;10.90;2.15;;;;;;;22.60;100.00;102091.78;5027037;28;20033;-51
2022/06/13 07:52:39;;;;;;;7.27;2.43;;;;;;;22.63;100.00;102096.78;5023089;28;20053;-52
2022/06/13 07:55:05;;;;;;;8.23;2.17;;;;;;;21.70;100.00;102095.00;5023816;28;20049;-54
2022/06/13 07:57:31;;;;;;;6.33;1.97;;;;;;;22.55;100.00;102105.34;5020099;28;20038;-52
2022/06/13 07:59:57;;;;;;;5.35;1.58;;;;;;;21.68;100.00;102110.72;5013610;28;20042;-49
2022/06/13 08:02:31;;;;;;;5.63;1.43;;;;;;;21.82;100.00;102116.75;5029855;28;20174;-51
2022/06/13 08:04:57;;;;;;;4.47;1.43;;;;;;;21.91;100.00;102123.47;5013172;28;20260;-51
2022/06/13 08:07:23;;;;;;;7.17;1.10;;;;;;;21.48;100.00;102130.97;5023218;28;20044;-50
2022/06/13 08:09:48;;;;;;;5.63;1.20;;;;;;;21.30;100.00;102135.47;5022312;28;20392;-52
2022/06/13 08:12:16;;;;;;;6.43;1.38;;;;;;;22.01;100.00;102140.00;5023325;28;20049;-51
2022/06/13 08:14:45;;;;;;;14.30;4.40;;;;;;;22.11;100.00;102139.38;5017744;28;20018;-55
2022/06/13 08:17:12;;;;;;;16.57;4.67;;;;;;;23.14;100.00;102147.75;5022149;28;20041;-51
2022/06/13 08:19:37;;;;;;;5.33;1.50;;;;;;;23.04;100.00;102151.16;5017941;28;20042;-49
2022/06/13 08:22:03;;;;;;;12.88;5.07;;;;;;;22.97;100.00;102150.50;5013994;28;20058;-47
2022/06/13 08:24:29;;;;;;;5.80;1.20;;;;;;;23.02;100.00;102164.22;4997928;28;20045;-53
2022/06/13 08:26:54;;;;;;;6.82;2.38;;;;;;;22.23;100.00;102157.59;5021124;28;20065;-49
2022/06/13 08:29:20;;;;;;;36.20;15.77;;;;;;;22.96;100.00;102155.13;4998612;28;20102;-48
2022/06/13 08:31:46;;;;;;;9.10;2.20;;;;;;;23.34;100.00;102161.75;5015017;28;20046;-49
2022/06/13 08:34:11;;;;;;;15.93;4.45;;;;;;;22.60;100.00;102163.50;5027245;28;20062;-49
2022/06/13 08:36:36;;;;;;;5.60;2.35;;;;;;;22.22;100.00;102156.75;5019450;28;20105;-50
2022/06/13 08:39:03;;;;;;;14.23;5.10;;;;;;;22.45;100.00;102155.84;5017522;28;20038;-49
2022/06/13 08:41:32;;;;;;;;;;;;;;;21.90;100.00;102165.38;5025259;28;20060;-48
2022/06/13 08:44:16;;;;;;;16.77;2.13;;;;;;;21.66;100.00;102159.13;5031565;28;19909;-52
2022/06/13 08:47:02;;;;;;;5.40;1.43;;;;;;;23.01;100.00;102163.38;5022145;28;20049;-51
2022/06/13 08:49:33;;;;;;;24.93;9.57;;;;;;;22.59;100.00;102161.84;5017132;28;20085;-48
2022/06/13 08:52:17;;;;;;;9.30;1.47;;;;;;;22.61;100.00;102169.81;5025880;28;20030;-49
2022/06/13 08:54:48;;;;;;;18.70;6.67;;;;;;;22.31;100.00;102165.38;5026318;28;20038;-47
2022/06/13 08:57:15;;;;;;;15.83;5.67;;;;;;;23.02;100.00;102180.59;5024620;28;20033;-46
2022/06/13 08:59:51;;;;;;;24.50;9.37;;;;;;;22.94;100.00;102173.63;5024566;28;20042;-49
2022/06/13 09:02:26;;;;;;;9.57;1.60;;;;;;;23.38;100.00;102172.97;5014123;28;20034;-52
2022/06/13 09:05:01;;;;;;;7.07;1.73;;;;;;;23.45;100.00;102181.00;5017131;28;20096;-49
2022/06/13 09:07:38;;;;;;;17.67;7.50;;;;;;;23.61;100.00;102185.63;5025393;28;20101;-53
2022/06/13 09:10:23;;;;;;;17.63;5.10;;;;;;;23.76;100.00;102178.72;5020957;28;20093;-51
2022/06/13 09:12:56;;;;;;;8.03;2.47;;;;;;;23.73;100.00;102180.06;5014451;28;20046;-50
2022/06/13 09:15:27;;;;;;;11.40;4.10;;;;;;;23.46;100.00;102188.13;5020286;28;20033;-49
2022/06/13 09:18:05;;;;;;;12.77;4.03;;;;;;;23.39;100.00;102191.00;5022082;28;20053;-50
2022/06/13 09:20:49;;;;;;;11.63;4.90;;;;;;;24.06;100.00;102194.69;5028860;28;20100;-52
2022/06/13 09:23:48;;;;;;;8.57;3.40;;;;;;;24.03;98.64;102202.59;5021109;28;20042;-52
2022/06/13 09:26:26;;;;;;;6.33;2.23;;;;;;;23.68;100.00;102204.56;5028685;28;20114;-48
2022/06/13 09:29:04;;;;;;;20.27;7.07;;;;;;;24.17;100.00;102205.78;5006749;28;20038;-52
2022/06/13 09:31:35;;;;;;;13.50;5.27;;;;;;;24.32;100.00;102224.25;5029188;28;20037;-49
2022/06/13 09:34:11;;;;;;;7.03;2.43;;;;;;;24.49;100.00;102219.53;5016454;28;20033;-52
2022/06/13 09:36:43;;;;;;;4.28;1.40;;;;;;;24.72;100.00;102239.47;5025415;28;20090;-49
2022/06/13 09:39:11;;;;;;;6.00;2.40;;;;;;;24.47;100.00;102224.44;5018862;28;20069;-50
2022/06/13 09:41:58;;;;;;;10.53;3.60;;;;;;;24.60;100.00;102227.84;5025245;28;20065;-50
2022/06/13 09:44:47;;;;;;;9.13;1.30;;;;;;;25.28;100.00;102235.63;5015784;28;20041;-53
2022/06/13 09:47:32;;;;;;;5.27;1.23;;;;;;;25.44;99.41;102227.53;5028489;28;20041;-53
2022/06/13 09:50:13;;;;;;;6.27;1.73;;;;;;;26.05;94.15;102216.13;5030065;28;20074;-51
2022/06/13 09:52:52;;;;;;;5.33;1.97;;;;;;;26.16;96.22;102217.03;5017687;28;20033;-49
2022/06/13 09:55:33;;;;;;;4.47;1.10;;;;;;;26.20;79.91;102229.09;5019739;28;20095;-52
2022/06/13 09:58:18;;;;;;;8.83;1.43;;;;;;;27.74;72.17;102231.44;5005897;28;20042;-50
2022/06/13 10:01:29;;;;;;;3.88;1.40;;;;;;;27.94;66.77;102235.25;5025600;28;20074;-50
2022/06/13 10:04:12;;;;;;;5.15;1.45;;;;;;;26.77;75.51;102232.00;4980648;28;20062;-51
2022/06/13 10:07:03;;;;;;;4.10;1.13;;;;;;;25.88;81.59;102232.78;5015558;28;20093;-50
2022/06/13 10:09:38;;;;;;;4.33;1.60;;;;;;;26.18;87.79;102241.41;5023709;28;20025;-49
2022/06/13 10:12:26;;;;;;;5.17;1.40;;;;;;;26.62;84.23;102234.72;5025209;28;20041;-51
2022/06/13 10:15:13;;;;;;;4.87;1.23;;;;;;;28.44;81.28;102241.63;5019716;28;20057;-48
2022/06/13 10:17:49;;;;;;;;;;;;;;;28.57;66.28;102245.69;5020239;28;20075;-49
2022/06/13 10:20:39;;;;;;;4.80;1.20;;;;;;;28.85;63.60;102242.53;5019855;28;19988;-50
2022/06/13 10:23:40;;;;;;;8.30;1.40;;;;;;;29.05;66.99;102234.06;5030989;28;20097;-49
2022/06/13 10:26:24;;;;;;;5.47;1.40;;;;;;;27.19;83.71;102241.09;5029440;28;20038;-46
2022/06/13 10:29:41;;;;;;;5.83;1.37;;;;;;;26.54;80.01;102247.03;5023945;28;20027;-52
2022/06/13 10:32:34;;;;;;;8.57;1.77;;;;;;;28.52;74.03;102245.72;5023470;28;20074;-54
2022/06/13 10:35:05;;;;;;;5.63;1.33;;;;;;;29.43;57.78;102249.22;5027522;28;20053;-47
2022/06/13 10:37:55;;;;;;;6.80;1.25;;;;;;;29.60;58.04;102251.50;5029845;28;20049;-53
2022/06/13 10:40:24;;;;;;;6.65;1.23;;;;;;;29.45;68.49;102239.56;5025316;28;20030;-53
2022/06/13 10:42:50;;;;;;;6.93;1.25;;;;;;;29.78;58.12;102244.44;5014122;28;20034;-53
2022/06/13 10:45:17;;;;;;;6.38;1.38;;;;;;;30.81;50.69;102249.75;5017685;28;20045;-50
2022/06/13 10:48:06;;;;;;;4.82;1.20;;;;;;;31.08;47.50;102249.03;5031080;28;20041;-50
2022/06/13 10:50:37;;;;;;;4.03;1.05;;;;;;;30.70;45.17;102260.13;5026839;28;20040;-51
2022/06/13 10:53:08;;;;;;;1.63;0.80;;;;;;;29.16;49.88;102253.28;5022073;28;20048;-50
2022/06/13 10:55:39;;;;;;;5.05;1.40;;;;;;;29.93;49.21;102259.16;5017366;28;20034;-51
2022/06/13 10:58:21;;;;;;;6.45;1.00;;;;;;;28.00;57.45;102251.41;5021622;28;20034;-53
2022/06/13 11:01:12;;;;;;;4.25;1.20;;;;;;;27.37;66.00;102254.56;5025599;28;20034;-52
2022/06/13 11:04:03;;;;;;;5.32;1.00;;;;;;;28.42;66.63;102252.09;5029862;28;20056;-53
2022/06/13 11:06:42;;;;;;;6.78;1.10;;;;;;;30.09;63.37;102249.63;5019425;28;20050;-52
2022/06/13 11:09:33;;;;;;;3.83;1.05;;;;;;;29.62;51.25;102263.06;5030823;28;20059;-53
2022/06/13 11:12:02;;;;;;;5.22;1.30;;;;;;;31.03;50.70;102261.00;5025560;28;20124;-51
2022/06/13 11:23:20;;;;;;;;;;;;;;;32.15;48.81;102265.88;5022151;28;20038;-50
2022/06/13 11:25:55;;;;;;;5.30;1.30;;;;;;;33.13;47.15;102265.59;5028772;28;19925;-51
2022/06/13 11:28:24;;;;;;;2.92;0.93;;;;;;;31.59;43.34;102277.72;5026980;28;20050;-52
2022/06/13 11:31:01;;;;;;;5.05;1.25;;;;;;;32.87;47.96;102267.06;5016555;28;20034;-49
2022/06/13 11:33:36;;;;;;;4.13;1.30;;;;;;;32.23;40.50;102278.16;5017084;28;20059;-51
2022/06/13 11:36:15;;;;;;;6.03;1.10;;;;;;;33.13;41.51;102273.91;5026446;28;20097;-53
2022/06/13 11:39:02;;;;;;;3.80;1.10;;;;;;;33.52;38.52;102280.69;5024337;28;20090;-51
2022/06/13 11:41:36;;;;;;;3.38;0.80;;;;;;;32.63;42.44;102272.88;5011057;28;20026;-47
2022/06/13 11:44:04;;;;;;;3.83;0.93;;;;;;;31.57;40.26;102268.91;5018471;28;20041;-48
2022/06/13 11:46:35;;;;;;;5.25;1.20;;;;;;;34.09;43.83;102281.09;5017994;28;20088;-49
2022/06/13 11:49:22;;;;;;;1.00;0.75;;;;;;;34.83;37.78;102276.59;5015331;28;20052;-48
2022/06/13 11:51:51;;;;;;;;;;;;;;;32.22;44.09;102273.75;5029233;28;20052;-46
2022/06/13 11:54:40;;;;;;;2.50;0.80;;;;;;;32.96;38.75;102272.66;5008578;28;19941;-51
2022/06/13 11:57:18;;;;;;;4.15;0.65;;;;;;;34.12;37.61;102275.69;5023336;28;20035;-47
2022/06/13 11:59:52;;;;;;;3.00;0.90;;;;;;;35.49;38.62;102280.22;5028236;28;20034;-50
2022/06/13 12:02:19;;;;;;;3.22;0.98;;;;;;;36.73;30.12;102285.91;5030112;28;20044;-48
2022/06/13 12:04:46;;;;;;;7.93;1.55;;;;;;;34.77;30.07;102289.03;5027341;28;20034;-50
2022/06/13 12:07:29;;;;;;;5.03;1.38;;;;;;;35.54;35.88;102271.75;5018562;28;20035;-54